createdAt,value
2023-05-07T00:00:08.798Z,6.50
2023-05-07T00:05:17.815Z,6.27
2023-05-07T00:10:26.312Z,6.46
2023-05-07T00:15:35.039Z,6.19
2023-05-07T00:20:43.781Z,6.23
2023-05-07T00:25:52.562Z,6.40
2023-05-07T00:31:01.028Z,6.46
2023-05-07T00:36:09.890Z,6.23
2023-05-07T00:41:18.633Z,6.22
2023-05-07T00:46:27.503Z,6.20
2023-05-07T00:51:35.983Z,6.39
2023-05-07T00:56:45.139Z,6.58
2023-05-07T01:01:53.823Z,7.04
2023-05-07T01:07:02.763Z,6.89
2023-05-07T01:12:10.757Z,6.57
2023-05-07T01:17:19.638Z,6.71
2023-05-07T01:22:27.805Z,8.04
2023-05-07T01:27:36.452Z,9.88
2023-05-07T01:32:44.802Z,9.83
2023-05-07T01:37:54.000Z,8.22
2023-05-07T01:43:02.720Z,9.16
2023-05-07T01:48:11.573Z,9.13
2023-05-07T01:53:20.168Z,7.73
2023-05-07T01:58:29.078Z,6.98
2023-05-07T02:03:37.784Z,7.34
2023-05-07T02:08:46.473Z,7.15
2023-05-07T02:13:58.084Z,8.39
2023-05-07T02:18:56.818Z,8.67
2023-05-07T02:24:05.623Z,8.21
2023-05-07T02:29:15.265Z,8.51
2023-05-07T02:34:23.688Z,8.69
2023-05-07T02:39:32.547Z,7.33
2023-05-07T02:44:41.047Z,7.40
2023-05-07T02:49:49.965Z,7.95
2023-05-07T02:54:58.553Z,7.01
2023-05-07T03:00:07.274Z,6.05
2023-05-07T03:05:15.766Z,6.33
2023-05-07T03:10:24.960Z,5.25
2023-05-07T03:15:36.629Z,4.70
2023-05-07T03:20:35.357Z,4.36
2023-05-07T03:25:44.029Z,4.42
2023-05-07T03:30:52.784Z,4.38
2023-05-07T03:36:01.603Z,4.05
2023-05-07T03:41:11.356Z,3.94
2023-05-07T03:46:20.033Z,3.96
2023-05-07T03:51:28.343Z,3.88
2023-05-07T03:56:37.399Z,3.72
2023-05-07T04:01:46.938Z,3.35
2023-05-07T04:06:55.500Z,3.68
2023-05-07T04:12:04.283Z,3.56
2023-05-07T04:17:13.156Z,3.61
2023-05-07T04:22:22.028Z,3.56
2023-05-07T04:27:30.242Z,3.71
2023-05-07T04:32:40.368Z,3.51
2023-05-07T04:37:38.566Z,3.82
2023-05-07T04:42:47.267Z,3.49
2023-05-07T04:47:55.848Z,3.48
2023-05-07T04:53:05.428Z,3.36
2023-05-07T04:58:13.877Z,3.58
2023-05-07T05:03:23.311Z,3.40
2023-05-07T05:08:31.520Z,3.26
2023-05-07T05:13:40.880Z,3.62
2023-05-07T05:18:49.205Z,3.60
2023-05-07T05:23:58.948Z,3.53
2023-05-07T05:29:07.789Z,3.69
2023-05-07T05:34:16.928Z,4.12
2023-05-07T05:39:25.526Z,3.43
2023-05-07T05:44:34.327Z,3.56
2023-05-07T05:49:43.078Z,3.15
2023-05-07T05:54:52.157Z,3.20
2023-05-07T06:00:00.956Z,3.35
2023-05-07T06:05:09.602Z,2.92
2023-05-07T06:10:17.938Z,3.21
2023-05-07T06:15:27.303Z,2.82
2023-05-07T06:20:36.082Z,3.28
2023-05-07T06:25:45.156Z,2.48
2023-05-07T06:30:53.828Z,2.42
2023-05-07T06:36:02.926Z,2.27
2023-05-07T06:41:11.348Z,2.16
2023-05-07T06:46:19.905Z,2.40
2023-05-07T06:51:28.730Z,2.06
2023-05-07T06:56:40.470Z,2.32
2023-05-07T07:01:38.724Z,1.85
2023-05-07T07:06:47.740Z,2.19
2023-05-07T07:11:56.579Z,2.00
2023-05-07T07:17:05.444Z,2.38
2023-05-07T07:22:13.944Z,2.38
2023-05-07T07:27:23.284Z,2.11
2023-05-07T07:32:31.946Z,2.09
2023-05-07T07:37:40.386Z,2.30
2023-05-07T07:42:49.268Z,2.10
2023-05-07T07:47:58.634Z,2.00
2023-05-07T07:53:07.265Z,2.34
2023-05-07T07:58:16.175Z,1.92
2023-05-07T08:03:24.949Z,1.91
2023-05-07T08:08:33.843Z,1.99
2023-05-07T08:13:42.377Z,2.12
2023-05-07T08:18:51.046Z,2.07
2023-05-07T08:23:59.581Z,2.25
2023-05-07T08:29:08.736Z,2.31
2023-05-07T08:34:17.242Z,1.96
2023-05-07T08:39:26.216Z,2.01
2023-05-07T08:44:34.664Z,2.23
2023-05-07T08:49:43.277Z,2.30
2023-05-07T08:54:52.282Z,2.10
2023-05-07T09:00:00.894Z,2.12
2023-05-07T09:05:09.627Z,2.09
2023-05-07T09:10:18.575Z,2.39
2023-05-07T09:15:27.044Z,2.89
2023-05-07T09:20:35.800Z,2.06
2023-05-07T09:25:44.165Z,2.30
2023-05-07T09:30:53.722Z,2.54
2023-05-07T09:36:02.427Z,2.48
2023-05-07T09:41:11.585Z,3.34
2023-05-07T09:46:20.008Z,4.70
2023-05-07T09:51:29.633Z,2.68
2023-05-07T09:56:37.874Z,2.34
2023-05-07T10:01:46.981Z,2.31
2023-05-07T10:06:55.543Z,2.66
2023-05-07T10:12:04.613Z,3.84
2023-05-07T10:17:13.193Z,2.48
2023-05-07T10:22:22.811Z,2.34
2023-05-07T10:27:31.049Z,2.32
2023-05-07T10:37:47.989Z,2.46
2023-05-07T10:42:57.188Z,2.09
2023-05-07T10:48:13.827Z,3.24
2023-05-07T10:53:14.093Z,2.39
2023-05-07T10:58:31.432Z,3.47
2023-05-07T11:03:32.468Z,2.40
2023-05-07T11:08:40.655Z,2.34
2023-05-07T11:13:49.657Z,2.13
2023-05-07T11:18:58.182Z,2.10
2023-05-07T11:24:07.083Z,2.16
2023-05-07T11:29:15.511Z,2.34
2023-05-07T11:34:24.337Z,2.11
2023-05-07T11:39:32.915Z,2.29
2023-05-07T11:44:41.581Z,2.19
2023-05-07T11:49:50.618Z,2.10
2023-05-07T11:54:59.837Z,2.05
2023-05-07T12:00:08.574Z,2.13
2023-05-07T12:05:17.668Z,2.17
2023-05-07T12:10:26.187Z,4.83
2023-05-07T12:15:35.098Z,2.22
2023-05-07T12:20:43.753Z,2.09
2023-05-07T12:25:52.485Z,1.84
2023-05-07T12:31:01.286Z,2.66
2023-05-07T12:36:09.957Z,2.54
2023-05-07T12:41:18.881Z,3.66
2023-05-07T12:46:28.175Z,8.67
2023-05-07T12:51:36.483Z,2.33
2023-05-07T12:56:45.377Z,1.97
2023-05-07T13:01:53.867Z,2.09
2023-05-07T13:07:03.261Z,2.40
2023-05-07T13:12:11.582Z,3.04
2023-05-07T13:17:20.411Z,2.12
2023-05-07T13:22:28.913Z,1.86
2023-05-07T13:27:38.032Z,2.08
2023-05-07T13:32:46.516Z,2.33
2023-05-07T13:37:58.524Z,2.08
2023-05-07T13:42:56.656Z,2.15
2023-05-07T13:48:06.144Z,1.94
2023-05-07T13:53:14.745Z,2.00
2023-05-07T13:58:23.645Z,1.70
2023-05-07T14:03:32.043Z,2.28
2023-05-07T14:08:40.989Z,2.38
2023-05-07T14:13:49.222Z,1.88
2023-05-07T14:18:58.798Z,1.75
2023-05-07T14:24:06.981Z,1.69
2023-05-07T14:29:16.119Z,2.11
2023-05-07T14:34:24.455Z,1.73
2023-05-07T14:39:33.732Z,2.01
2023-05-07T14:44:42.292Z,1.79
2023-05-07T14:49:51.721Z,1.89
2023-05-07T14:55:00.415Z,1.83
2023-05-07T15:00:09.646Z,1.75
2023-05-07T15:05:18.707Z,1.87
2023-05-07T15:10:28.020Z,1.89
2023-05-07T15:15:37.375Z,2.13
2023-05-07T15:20:46.014Z,2.02
2023-05-07T15:25:54.551Z,1.91
2023-05-07T15:30:58.725Z,1.94
2023-05-07T15:36:07.989Z,2.02
2023-05-07T15:41:21.076Z,1.98
2023-05-07T15:46:19.802Z,2.17
2023-05-07T15:51:32.695Z,1.99
2023-05-07T15:56:31.357Z,2.03
2023-05-07T16:01:45.281Z,2.08
2023-05-07T16:06:41.923Z,2.11
2023-05-07T16:11:50.757Z,2.15
2023-05-07T16:17:12.296Z,2.46
2023-05-07T16:22:00.765Z,2.06
2023-05-07T16:27:08.452Z,2.55
2023-05-07T16:32:17.216Z,2.36
2023-05-07T16:37:25.617Z,2.40
2023-05-07T16:42:34.638Z,12.87
2023-05-07T16:47:43.573Z,28.82
2023-05-07T16:52:52.850Z,26.99
2023-05-07T16:58:01.798Z,31.85
2023-05-07T17:03:14.725Z,28.48
2023-05-07T17:08:14.487Z,20.12
2023-05-07T17:13:23.164Z,36.12
2023-05-07T17:18:31.788Z,22.80
2023-05-07T17:23:41.067Z,5.16
2023-05-07T17:28:49.629Z,4.73
2023-05-07T17:33:58.546Z,5.52
2023-05-07T17:39:07.486Z,3.46
2023-05-07T17:44:16.716Z,3.64
2023-05-07T17:49:25.336Z,5.10
2023-05-07T17:54:34.330Z,44.19
2023-05-07T17:59:43.162Z,12.85
2023-05-07T18:04:52.614Z,11.53
2023-05-07T18:10:01.371Z,7.01
2023-05-07T18:15:10.587Z,5.49
2023-05-07T18:20:19.214Z,4.21
2023-05-07T18:25:27.935Z,4.09
2023-05-07T18:30:36.933Z,4.45
2023-05-07T18:35:46.058Z,4.19
2023-05-07T18:40:54.468Z,3.85
2023-05-07T18:46:03.818Z,3.63
2023-05-07T18:51:12.533Z,3.72
2023-05-07T18:56:21.398Z,3.71
2023-05-07T19:01:30.615Z,3.75
2023-05-07T19:06:39.548Z,3.53
2023-05-07T19:11:48.431Z,3.66
2023-05-07T19:16:57.692Z,3.94
2023-05-07T19:22:06.444Z,3.83
2023-05-07T19:27:15.619Z,3.99
2023-05-07T19:32:24.498Z,4.09
2023-05-07T19:37:33.127Z,4.09
2023-05-07T19:42:41.881Z,4.28
2023-05-07T19:47:51.225Z,3.98
2023-05-07T19:53:00.302Z,4.23
2023-05-07T19:58:10.035Z,3.88
2023-05-07T20:03:19.694Z,4.15
2023-05-07T20:08:28.521Z,4.23
2023-05-07T20:13:36.857Z,4.54
2023-05-07T20:18:45.765Z,4.18
2023-05-07T20:23:54.541Z,4.64
2023-05-07T20:29:03.105Z,4.43
2023-05-07T20:34:11.619Z,4.36
2023-05-07T20:39:21.410Z,4.27
2023-05-07T20:44:29.776Z,4.77
2023-05-07T20:49:38.830Z,4.83
2023-05-07T20:54:47.807Z,4.73
2023-05-07T20:59:56.870Z,4.47
2023-05-07T21:05:05.703Z,4.46
2023-05-07T21:10:14.817Z,4.31
2023-05-07T21:15:23.195Z,4.22
2023-05-07T21:20:32.277Z,4.49
2023-05-07T21:25:40.784Z,4.88
2023-05-07T21:30:49.706Z,4.76
2023-05-07T21:35:58.456Z,4.84
2023-05-07T21:41:07.637Z,4.84
2023-05-07T21:46:16.379Z,5.08
2023-05-07T21:51:25.395Z,5.46
2023-05-07T21:56:33.927Z,5.22
2023-05-07T22:01:42.981Z,5.49
2023-05-07T22:06:51.880Z,4.62
2023-05-07T22:12:01.388Z,4.69
2023-05-07T22:17:10.141Z,4.78
2023-05-07T22:22:19.741Z,4.52
2023-05-07T22:27:28.165Z,4.75
2023-05-07T22:32:37.041Z,4.84
2023-05-07T22:37:45.421Z,4.77
2023-05-07T22:42:54.197Z,4.40
2023-05-07T22:48:03.038Z,4.86
2023-05-07T22:53:11.640Z,4.71
2023-05-07T22:58:20.034Z,4.97
2023-05-07T23:03:29.117Z,5.87
2023-05-07T23:08:38.148Z,6.67
2023-05-07T23:13:47.242Z,7.26
2023-05-07T23:18:55.890Z,7.98
2023-05-07T23:24:04.873Z,8.07
2023-05-07T23:29:13.226Z,8.52
2023-05-07T23:34:21.870Z,8.06
2023-05-07T23:39:30.323Z,8.08
2023-05-07T23:44:39.271Z,8.44
2023-05-07T23:49:47.666Z,8.50
2023-05-07T23:54:57.119Z,8.45
